Carson Sink, Nevada Weather observations

Data are for observation ending at time listed.
 Day   Time    Ave.   Ave.  Ave.  Vector   Max.   Stn.    Total    Solar   Ave.  
  of    of     Air    Rel.  Wind   Wind    Wind   Baro.  Precip.   Rad.    Soil  
Year   Day     Temp.  Hum.  Speed  Dir.    Gust   Pres.                    Temp. 
2017   (PST)    F      %     mph   deg.    mph     mb.     in.     W/m2     F   
------------------------------------------------------------------------------
  35   20:30   44.6    66    6.4   225      9.3   881.9    0.00       0     45.9
  35   20:40   44.3    67    6.4   155      9.6   882.2    0.00       0     45.8
  35   20:50   44.6    68    8.6   143     11.8   882.3    0.00       0     45.7
  35   21:00   44.0    70    7.1   152      8.8   882.4    0.00       0     45.6
  35   21:10   44.4    66    5.0   179      8.5   882.3    0.00       0     45.5
  35   21:20   44.6    65    5.2   164      7.7   882.3    0.00       0     45.4
  35   21:30   44.3    66    4.4   178      7.5   882.6    0.00       0     45.3
  35   21:40   44.5    64    7.1   179      9.6   882.6    0.00       0     45.2
  35   21:50   44.4    63    7.6   187     10.4   882.6    0.00       0     45.1
  35   22:00   44.0    63    9.3   203     13.4   882.4    0.00       0     45.0
  35   22:10   43.3    65    7.8   214     10.9   882.4    0.00       0     44.9
  35   22:20   42.3    67    5.9   205      8.0   882.7    0.00       0     44.9
  35   22:30   42.6    68    5.9   172      8.7   882.9    0.00       0     44.8
  35   22:40   41.8    71    3.4   148      5.1   883.1    0.00       0     44.6
  35   22:50   41.0    72    3.3   150      4.5   883.1    0.00       0     44.6
  35   23:00   40.9    73    4.1   119      4.9   883.0    0.00       0     44.5
  35   23:10   43.0    67    3.5   125      4.6   883.1    0.00       0     44.3
  35   23:20   43.0    65    4.5   172      5.6   883.0    0.00       0     44.2
  35   23:30   42.8    65    6.1   186      8.3   882.8    0.00       0     44.1
  35   23:40   42.2    67    6.1   174      8.6   882.8    0.00       0     44.0
  35   23:50   39.9    74    7.4   140      8.6   882.7    0.00       0     43.9
  36    0:00   39.2    76    7.5   121      8.4   882.6    0.00       0     43.8
  36    0:10   39.2    76    6.9   135      8.0   882.6    0.00       0     43.7
  36    0:20   39.1    76    4.9   159      6.2   882.7    0.00       0     43.6
  36    0:30   39.6    74    4.6   169      5.8   882.7    0.00       0     43.6
  36    0:40   39.0    74    5.0   169      6.4   882.6    0.00       0     43.5
  36    0:50   39.3    73    5.8   196      7.8   882.5    0.00       0     43.4
  36    1:00   38.1    74    5.1   210      6.3   882.4    0.00       0     43.3
  36    1:10   38.2    75    5.7   306      9.6   882.5    0.00       0     43.2
  36    1:20   39.1    77    6.0   351      7.7   882.4    0.00       0     43.1
  36    1:30   38.9    77    6.1     9      7.7   882.5    0.00       0     43.0
  36    1:40   39.1    78    4.2    22      5.2   882.4    0.00       0     42.9
  36    1:50   39.2    78    0.8    22      3.4   882.4    0.00       0     42.8
  36    2:00   38.9    78    0.1    22      1.0   882.4    0.00       0     42.7
  36    2:10   38.7    79    0.3    29      4.5   882.4    0.00       0     42.6
  36    2:20   38.9    77    0.0     0      0.0   882.3    0.00       0     42.4
  36    2:30   37.9    78    0.0     0      0.0   882.2    0.00       0     42.3
  36    2:40   37.0    80    0.0     0      0.0   882.2    0.00       0     42.2
  36    2:50   36.9    80    0.0     0      0.0   882.1    0.00       0     42.1
  36    3:00   36.2    81    0.0     0      0.0   882.0    0.00       0     42.0
  36    3:10   36.6    82    0.0     0      0.0   881.9    0.00       0     41.9
  36    3:20   36.7    81    0.0     0      0.0   881.9    0.00       0     41.8
  36    3:30   36.4    82    0.0     0      0.0   881.8    0.00       0     41.7
  36    3:40   37.0    81    0.0     0      0.0   881.7    0.00       0     41.6
  36    3:50   36.5    81    0.0     0      0.0   881.7    0.00       0     41.5
  36    4:00   36.4    81    0.0     0      0.0   881.6    0.00       0     41.4
  36    4:10   36.8    80    0.0     0      0.0   881.5    0.00       0     41.3
  36    4:20   36.9    79    0.0     0      0.0   881.2    0.00       0     41.2
  36    4:30   36.8    78    0.0     0      0.0   881.0    0.00       0     41.1
  36    4:40   36.6    79    0.0     0      0.0   880.8    0.00       0     41.0
  36    4:50   34.9    79    0.0     0      0.0   881.0    0.00       0     40.9
  36    5:00   33.1    82    0.0     0      0.0   881.0    0.00       0     40.8
  36    5:10   33.1    83    0.0     0      0.0   881.1    0.00       0     40.7
  36    5:20   33.6    82    0.0     0      0.0   880.9    0.00       0     40.6
  36    5:30   33.8    82    0.0     0      0.0   880.8    0.00       0     40.6
  36    5:40   33.9    82    0.0     0      0.0   880.8    0.00       0     40.5
  36    5:50   33.5    82    0.0     0      0.0   880.6    0.00       0     40.3
  36    6:00   33.2    82    0.0     0      0.0   880.6    0.00       0     40.3
  36    6:10   33.1    82    0.0     0      0.0   880.7    0.00       0     40.2
  36    6:20   33.2    83    0.0     0      0.0   880.8    0.00       0     40.1
  36    6:30   33.9    82    0.0     0      0.0   880.9    0.00       0     40.0
  36    6:40   34.2    82    0.0     0      0.0   880.7    0.00       0     39.9
  36    6:50   34.3    81    0.0     0      0.0   880.6    0.00       0     39.8
  36    7:00   34.1    82    0.0     0      0.0   880.6    0.00       1     39.8
  36    7:10   34.1    82    0.0     0      0.0   880.6    0.00       3     39.7
  36    7:20   34.3    82    0.0     0      0.0   880.7    0.00       9     39.6
  36    7:30   33.2    83    0.0     0      0.0   880.8    0.00      17     39.6
  36    7:40   32.9    84    0.0     0      0.0   880.9    0.00      26     39.5
  36    7:50   32.8    84    0.0     0      0.0   880.9    0.00      37     39.5
  36    8:00   33.0    85    0.0     0      0.0   880.9    0.00      52     39.5
  36    8:10   33.9    84    0.0     0      0.0   880.9    0.00      61     39.4
  36    8:20   34.2    84    0.0     0      0.0   880.9    0.00      64     39.4
  36    8:30   34.3    84    0.0     0      0.0   880.8    0.00      75     39.4
  36    8:40   34.3    84    0.0     0      0.0   880.5    0.00      86     39.4
  36    8:50   34.5    85    0.0     0      0.0   880.6    0.00      97     39.3
  36    9:00   34.8    85    0.0     0      0.0   880.6    0.00     141     39.4
  36    9:10   36.1    85    0.0     0      0.0   880.6    0.00     161     39.4
  36    9:20   37.1    84    0.0     0      0.0   880.6    0.00     186     39.4
  36    9:30   37.8    82    0.0     0      0.0   880.5    0.00     222     39.4
  36    9:40   37.8    81    0.0     0      0.0   880.3    0.00     229     39.5
  36    9:50   37.0    81    0.0     0      0.0   880.3    0.00     190     39.5
  36   10:00   37.0    81    0.0     0      0.0   880.3    0.00     189     39.6
  36   10:10   37.3    82    0.0     0      0.0   880.1    0.00     158     39.7
  36   10:20   37.6    82    0.0     0      0.0   880.0    0.00     209     39.8
  36   10:30   38.2    82    0.0     0      0.0   879.9    0.00     226     39.9
  36   10:40   38.7    82    0.0     0      0.0   879.7    0.00     177     40.1
  36   10:50   38.9    82    0.0     0      0.0   879.7    0.00     176     40.2
  36   11:00   39.6    81    0.0     0      0.0   879.6    0.00     191     40.3
  36   11:10   40.0    81    0.0     0      0.0   879.5    0.00     201     40.4
  36   11:20   40.4    79    0.0     0      0.0   879.3    0.00     235     40.6
  36   11:30   40.9    78    0.0     0      0.0   879.2    0.00     211     40.7
  36   11:40   41.2    78    0.0     0      0.0   879.1    0.00     191     40.8
  36   11:50   41.8    76    0.0     0      0.0   878.9    0.00     185     41.0
  36   12:00   42.3    74    0.0     0      0.0   878.8    0.00     208     41.1
  36   12:10   42.5    72    0.0     0      0.0   878.6    0.00     191     41.2
  36   12:20   43.0    70    0.0     0      0.0   878.4    0.00     188     41.4
  36   12:30   43.1    69    0.0     0      0.0   877.9    0.00     145     41.6
  36   12:40   42.7    70    0.0     0      0.0   877.7    0.00     125     41.7
  36   12:50   42.7    70    0.0     0      0.0   877.5    0.00     144     41.8
  36   13:00   42.7    70    0.0     0      0.0   877.3    0.00     215     42.0
  36   13:10   42.9    69    0.0     0      0.0   876.8    0.00     261     42.1
  36   13:20   42.9    70    0.0     0      0.0   876.5    0.00     239     42.2
  36   13:30   43.0    71    0.0     0      0.0   876.3    0.00     267     42.4
  36   13:40   43.5    70    0.0     0      0.0   876.2    0.00     282     42.5
  36   13:50   43.5    71    0.0     0      0.0   875.8    0.00     256     42.6
  36   14:00   43.5    70    0.0     0      0.0   875.5    0.00     243     42.8
  36   14:10   43.5    70    0.0     0      0.0   875.2    0.00     235     42.9
  36   14:20   43.8    69    0.0     0      0.0   875.0    0.00     221     43.1
  36   14:30   44.1    68    0.0     0      0.0   874.7    0.00     214     43.2
  36   14:40   44.3    70    0.0     0      0.0   874.6    0.00     215     43.4
  36   14:50   44.4    71    0.0     0      0.0   874.3    0.00     185     43.5
  36   15:00   44.4    71    0.0     0      0.0   874.0    0.00     159     43.6
  36   15:10   44.4    71    0.0     0      0.0   873.8    0.00     131     43.7
  36   15:20   44.5    72    0.0     0      0.0   873.7    0.00     113     43.9
  36   15:30   44.7    73    0.0     0      0.0   873.4    0.00      90     43.9
  36   15:40   44.7    74    0.0     0      0.0   873.3    0.00      75     44.0
  36   15:50   44.9    74    0.0     0      0.0   873.0    0.00      64     44.1
  36   16:00   45.0    75    0.0     0      0.0   872.9    0.00      55     44.2
  36   16:10   44.7    77    0.0     0      0.0   872.7    0.00      49     44.2
  36   16:20   44.7    78    0.0     0      0.0   872.7    0.00      43     44.2
  36   16:30   44.6    78    0.0     0      0.0   872.6    0.00      43     44.3
  36   16:40   44.4    79    0.0     0      0.0   872.5    0.00      45     44.3
  36   16:50   44.5    80    0.0     0      0.0   872.4    0.00      43     44.3
  36   17:00   44.9    80    0.0     0      0.0   872.1    0.00      33     44.3
  36   17:10   44.6    80    0.0     0      0.0   871.9    0.00      19     44.2
  36   17:20   43.9    80    0.0     0      0.0   871.7    0.00       6     44.2
  36   17:30   44.1    79    0.0     0      0.0   871.7    0.00       1     44.2
  36   17:40   43.6    79    0.0     0      0.0   871.8    0.00       0     44.1
  36   17:50   43.4    78    0.0     0      0.0   871.7    0.00       0     44.1
  36   18:00   43.4    77    0.0     0      0.0   871.6    0.00       0     44.0
  36   18:10   44.8    73    0.2   174      6.0   871.5    0.00       0     43.9
  36   18:20   45.9    68    0.0     0      0.0   871.4    0.00       0     43.9
  36   18:30   47.8    62    6.9   189     13.2   871.2    0.00       0     43.8
  36   18:40   47.5    60   10.2   184     17.6   870.9    0.00       0     43.8
  36   18:50   47.4    60   13.1   178     18.6   870.6    0.00       0     43.7
  36   19:00   47.1    59   14.1   179     18.2   870.4    0.00       0     43.6
  36   19:10   48.1    56   15.5   182     22.2   870.3    0.00       0     43.5
  36   19:20   47.4    56   17.1   174     23.0   870.2    0.00       0     43.5
  36   19:30   47.1    57   17.1   174     22.1   870.1    0.00       0     43.4
  36   19:40   47.2    56   16.6   174     22.8   870.0    0.00       0     43.3
  36   19:50   47.0    57   15.0   178     20.0   869.9    0.00       0     43.2
  36   20:00   46.8    58   15.4   179     22.9   869.7    0.00       0     43.2
  36   20:10   47.6    56   18.7   180     24.5   869.7    0.00       0     43.2
  36   20:20   47.9    55   18.0   180     23.5   869.8    0.00       0     43.1

Return to Carson Sink graphs page.


Western Regional Climate Center,wrcc@dri.edu